Jackson, Missouri
Current Conditions -  °F | °C
As of 1:53 AM on Friday 24 Oct 2014 (Local Time) from KCGI Reporting Station
Broken Clouds Broken Clouds  
Wind Chill: 44°   Ceiling: 6000
Heat Index: 44°   Visibility: 7mi
Dew Point: 43°   Wind: 0mph
Humidity: 96%   Direction: NA
Pressure: 30.13"   Gusts: NA
Location:  37.38°N, 89.67°W
Report Text: KCGI 240653Z AUTO 00000KT 7SM BKN060 07/06 A3013 RMK AO2 SLP202 T00670061 TSNO
Loading
Personal Weather Stations






























Interactive Weather Map
Tropical Storm Tracking
New forecast layout! Learn more

10-Day Weather Forecast

Advertisements
Track Severe Weather on mobile